Gustavsfors, Sweden

3:00 PM CET on February 11, 2016 (GMT +0100)
Jonsarna, Ransbysatter, Varmland, Sweden | | Change Station
CLOSE
Current Station
Personal Weather Station
Location: Värmland County, VäRMLAND COUNTY
Elevation: 427 ft
Nearby Weather Stations

Elev 427 ft 60.03 °N, 13.24 °E | Updated 3 minutes ago

Mostly Cloudy
Mostly Cloudy
34.5 °F
Feels Like 34 °F
N
0.0
Wind Variable Wind from North
Gusts 0.7 mph

Today
High -- | Low -- °F
--% Chance of Precip.
Yesterday
High -- | Low -- °F
Precip. -- in
Pressure 29.44 in
Visibility 6.2 miles
Clouds Mostly Cloudy 4600 ft
Windchill 34 °F
Dew Point 20 °F
Humidity 55%
Rainfall 0.00 in
Snow Depth Not available.
7:55 AM 4:43 PM
Waxing Crescent, 12% visible
METAR ESOK 111350Z 36008KT 9999 BKN046 01/M04 Q0997
Pressure 29.44 in
Visibility 6.2 miles
Clouds Mostly Cloudy 4600 ft
Windchill 34 °F
Dew Point 20 °F
Humidity 55%
Rainfall 0.00 in
Snow Depth Not available.
7:55 AM 4:43 PM
Waxing Crescent, 12% visible
METAR ESOK 111350Z 36008KT 9999 BKN046 01/M04 Q0997

10-Day Weather Forecast

Almanac

Astronomy

Feb. 11, 2016 Rise Set
Actual Time
Civil Twilight
Nautical Twilight
Astronomical Twilight
Moon
Length of Visible Light
Length of Day
Tomorrow will be .
, % of the Moon is Illuminated

Today's Extremes

Country Highs Country Lows

Community

WunderPhotos

Upload Photos

1,892,046 photos uploaded!

WunderBlog® & News

Nearby

Air Quality

  Air Quality AQ Index Pollutant
Not available.

Snow Depth

Station Depth Elevation

Earthquake Activity

City Distance Mag. Time & Date
Minimum magnitude displayed is 2.5.

Coastal Water Temperatures

Place Temperature

Stations

Nearby Weather Stations

Station Location Temp. Windchill Dew Point Humidity Wind Precip. Elev Updated Type